sensor_id;sensor_type;location;lat;lon;timestamp;P1;durP1;ratioP1;P2;durP2;ratioP2
71080;SDS011;58740;50.672;18.690;2022-08-18T00:00:04;19.80;;;15.50;;
71080;SDS011;58740;50.672;18.690;2022-08-18T00:03:07;19.40;;;14.80;;
71080;SDS011;58740;50.672;18.690;2022-08-18T00:05:57;21.10;;;16.20;;
71080;SDS011;58740;50.672;18.690;2022-08-18T00:08:25;19.30;;;15.40;;
71080;SDS011;58740;50.672;18.690;2022-08-18T00:10:55;19.70;;;15.00;;
71080;SDS011;58740;50.672;18.690;2022-08-18T00:13:24;24.10;;;15.90;;
71080;SDS011;58740;50.672;18.690;2022-08-18T00:15:52;18.80;;;14.10;;
71080;SDS011;58740;50.672;18.690;2022-08-18T00:18:20;20.10;;;15.80;;
71080;SDS011;58740;50.672;18.690;2022-08-18T00:20:48;19.10;;;14.90;;
71080;SDS011;58740;50.672;18.690;2022-08-18T00:23:16;20.00;;;15.60;;
71080;SDS011;58740;50.672;18.690;2022-08-18T00:25:44;20.90;;;16.00;;
71080;SDS011;58740;50.672;18.690;2022-08-18T00:28:12;20.40;;;14.80;;
71080;SDS011;58740;50.672;18.690;2022-08-18T00:30:40;22.30;;;16.00;;
71080;SDS011;58740;50.672;18.690;2022-08-18T00:33:08;24.70;;;16.10;;
71080;SDS011;58740;50.672;18.690;2022-08-18T00:35:37;21.50;;;16.10;;
71080;SDS011;58740;50.672;18.690;2022-08-18T00:38:06;21.80;;;15.40;;
71080;SDS011;58740;50.672;18.690;2022-08-18T00:40:51;21.90;;;15.20;;
71080;SDS011;58740;50.672;18.690;2022-08-18T00:46:16;21.60;;;15.70;;
71080;SDS011;58740;50.672;18.690;2022-08-18T00:48:49;19.80;;;15.30;;
71080;SDS011;58740;50.672;18.690;2022-08-18T00:51:38;19.30;;;14.40;;
71080;SDS011;58740;50.672;18.690;2022-08-18T00:54:15;19.70;;;15.40;;
71080;SDS011;58740;50.672;18.690;2022-08-18T00:56:55;21.70;;;14.90;;
71080;SDS011;58740;50.672;18.690;2022-08-18T00:59:40;18.30;;;14.50;;
71080;SDS011;58740;50.672;18.690;2022-08-18T01:02:26;23.40;;;16.40;;
71080;SDS011;58740;50.672;18.690;2022-08-18T01:05:09;19.10;;;15.30;;
71080;SDS011;58740;50.672;18.690;2022-08-18T01:07:44;21.80;;;15.40;;
71080;SDS011;58740;50.672;18.690;2022-08-18T01:10:15;19.90;;;16.80;;
71080;SDS011;58740;50.672;18.690;2022-08-18T01:12:51;19.40;;;15.00;;
71080;SDS011;58740;50.672;18.690;2022-08-18T01:15:21;22.30;;;15.80;;
71080;SDS011;58740;50.672;18.690;2022-08-18T01:18:02;22.10;;;15.60;;
71080;SDS011;58740;50.672;18.690;2022-08-18T01:23:47;23.10;;;18.90;;
71080;SDS011;58740;50.672;18.690;2022-08-18T01:26:18;18.80;;;15.80;;
71080;SDS011;58740;50.672;18.690;2022-08-18T01:28:49;18.90;;;14.50;;
71080;SDS011;58740;50.672;18.690;2022-08-18T01:31:35;20.50;;;15.30;;
71080;SDS011;58740;50.672;18.690;2022-08-18T01:34:07;22.30;;;16.30;;
71080;SDS011;58740;50.672;18.690;2022-08-18T01:36:39;24.30;;;17.40;;
71080;SDS011;58740;50.672;18.690;2022-08-18T01:39:12;24.30;;;17.40;;
71080;SDS011;58740;50.672;18.690;2022-08-18T01:41:40;21.90;;;16.30;;
71080;SDS011;58740;50.672;18.690;2022-08-18T01:44:07;22.80;;;16.70;;
71080;SDS011;58740;50.672;18.690;2022-08-18T01:46:40;20.00;;;16.00;;
71080;SDS011;58740;50.672;18.690;2022-08-18T01:49:09;23.60;;;16.60;;
71080;SDS011;58740;50.672;18.690;2022-08-18T01:51:37;22.70;;;17.90;;
71080;SDS011;58740;50.672;18.690;2022-08-18T01:54:11;25.50;;;18.00;;
71080;SDS011;58740;50.672;18.690;2022-08-18T01:56:41;23.00;;;17.60;;
71080;SDS011;58740;50.672;18.690;2022-08-18T01:59:10;22.10;;;16.90;;
71080;SDS011;58740;50.672;18.690;2022-08-18T02:01:43;20.40;;;16.60;;
71080;SDS011;58740;50.672;18.690;2022-08-18T02:04:22;23.40;;;17.40;;
71080;SDS011;58740;50.672;18.690;2022-08-18T02:07:09;24.00;;;17.60;;
71080;SDS011;58740;50.672;18.690;2022-08-18T02:09:39;23.70;;;16.90;;
71080;SDS011;58740;50.672;18.690;2022-08-18T02:12:08;23.20;;;17.00;;
71080;SDS011;58740;50.672;18.690;2022-08-18T02:14:37;25.40;;;18.20;;
71080;SDS011;58740;50.672;18.690;2022-08-18T02:17:08;25.30;;;18.50;;
71080;SDS011;58740;50.672;18.690;2022-08-18T02:19:43;25.50;;;18.10;;
71080;SDS011;58740;50.672;18.690;2022-08-18T02:22:15;24.60;;;18.50;;
71080;SDS011;58740;50.672;18.690;2022-08-18T02:24:46;22.50;;;17.70;;
71080;SDS011;58740;50.672;18.690;2022-08-18T02:27:14;23.20;;;17.30;;
71080;SDS011;58740;50.672;18.690;2022-08-18T02:29:43;23.80;;;18.70;;
71080;SDS011;58740;50.672;18.690;2022-08-18T02:32:11;20.50;;;17.00;;
71080;SDS011;58740;50.672;18.690;2022-08-18T02:34:38;22.60;;;17.60;;
71080;SDS011;58740;50.672;18.690;2022-08-18T02:37:10;24.00;;;17.80;;
71080;SDS011;58740;50.672;18.690;2022-08-18T02:39:42;22.20;;;17.20;;
71080;SDS011;58740;50.672;18.690;2022-08-18T02:42:10;21.30;;;16.90;;
71080;SDS011;58740;50.672;18.690;2022-08-18T02:44:39;22.00;;;17.50;;
71080;SDS011;58740;50.672;18.690;2022-08-18T02:47:07;21.80;;;16.90;;
71080;SDS011;58740;50.672;18.690;2022-08-18T02:49:35;24.70;;;18.10;;
71080;SDS011;58740;50.672;18.690;2022-08-18T02:52:03;23.20;;;17.50;;
71080;SDS011;58740;50.672;18.690;2022-08-18T02:54:32;22.20;;;18.30;;
71080;SDS011;58740;50.672;18.690;2022-08-18T02:57:08;26.90;;;17.90;;
71080;SDS011;58740;50.672;18.690;2022-08-18T02:59:39;22.80;;;17.70;;
71080;SDS011;58740;50.672;18.690;2022-08-18T03:02:08;21.00;;;16.40;;
71080;SDS011;58740;50.672;18.690;2022-08-18T03:04:36;21.90;;;15.60;;
71080;SDS011;58740;50.672;18.690;2022-08-18T03:07:06;22.20;;;17.00;;
71080;SDS011;58740;50.672;18.690;2022-08-18T03:09:35;22.10;;;17.20;;
71080;SDS011;58740;50.672;18.690;2022-08-18T03:12:04;23.30;;;16.90;;
71080;SDS011;58740;50.672;18.690;2022-08-18T03:14:36;20.60;;;16.40;;
71080;SDS011;58740;50.672;18.690;2022-08-18T03:17:07;19.50;;;16.70;;
71080;SDS011;58740;50.672;18.690;2022-08-18T03:19:35;19.40;;;16.00;;
71080;SDS011;58740;50.672;18.690;2022-08-18T03:22:07;24.30;;;16.20;;
71080;SDS011;58740;50.672;18.690;2022-08-18T03:24:56;24.30;;;16.80;;
71080;SDS011;58740;50.672;18.690;2022-08-18T03:27:24;22.90;;;16.70;;
71080;SDS011;58740;50.672;18.690;2022-08-18T03:29:52;20.80;;;16.50;;
71080;SDS011;58740;50.672;18.690;2022-08-18T03:32:20;22.40;;;16.50;;
71080;SDS011;58740;50.672;18.690;2022-08-18T03:34:48;26.80;;;17.80;;
71080;SDS011;58740;50.672;18.690;2022-08-18T03:37:15;27.10;;;17.40;;
71080;SDS011;58740;50.672;18.690;2022-08-18T03:39:43;20.50;;;16.20;;
71080;SDS011;58740;50.672;18.690;2022-08-18T03:42:11;22.60;;;16.50;;
71080;SDS011;58740;50.672;18.690;2022-08-18T03:44:39;21.90;;;16.70;;
71080;SDS011;58740;50.672;18.690;2022-08-18T03:47:08;21.20;;;16.70;;
71080;SDS011;58740;50.672;18.690;2022-08-18T03:49:37;25.10;;;16.50;;
71080;SDS011;58740;50.672;18.690;2022-08-18T03:52:08;23.60;;;16.70;;
71080;SDS011;58740;50.672;18.690;2022-08-18T03:54:36;24.60;;;16.60;;
71080;SDS011;58740;50.672;18.690;2022-08-18T03:57:10;21.80;;;15.90;;
71080;SDS011;58740;50.672;18.690;2022-08-18T03:59:39;21.90;;;15.70;;
71080;SDS011;58740;50.672;18.690;2022-08-18T04:02:10;21.30;;;16.40;;
71080;SDS011;58740;50.672;18.690;2022-08-18T04:04:38;23.40;;;17.00;;
71080;SDS011;58740;50.672;18.690;2022-08-18T04:07:11;23.00;;;16.50;;
71080;SDS011;58740;50.672;18.690;2022-08-18T04:09:44;23.90;;;18.80;;
71080;SDS011;58740;50.672;18.690;2022-08-18T04:12:14;25.00;;;18.20;;
71080;SDS011;58740;50.672;18.690;2022-08-18T04:14:47;23.10;;;17.00;;
71080;SDS011;58740;50.672;18.690;2022-08-18T04:17:18;20.70;;;16.70;;
71080;SDS011;58740;50.672;18.690;2022-08-18T04:19:53;23.50;;;18.60;;
71080;SDS011;58740;50.672;18.690;2022-08-18T04:22:23;24.90;;;18.60;;
71080;SDS011;58740;50.672;18.690;2022-08-18T04:24:52;25.90;;;18.40;;
71080;SDS011;58740;50.672;18.690;2022-08-18T04:27:21;25.70;;;19.40;;
71080;SDS011;58740;50.672;18.690;2022-08-18T04:29:49;21.60;;;17.00;;
71080;SDS011;58740;50.672;18.690;2022-08-18T04:32:17;24.80;;;18.40;;
71080;SDS011;58740;50.672;18.690;2022-08-18T04:34:45;25.20;;;17.70;;
71080;SDS011;58740;50.672;18.690;2022-08-18T04:37:14;27.70;;;19.60;;
71080;SDS011;58740;50.672;18.690;2022-08-18T04:39:43;29.90;;;20.00;;
71080;SDS011;58740;50.672;18.690;2022-08-18T04:42:12;27.90;;;19.80;;
71080;SDS011;58740;50.672;18.690;2022-08-18T04:44:41;26.90;;;19.00;;
71080;SDS011;58740;50.672;18.690;2022-08-18T04:47:09;26.20;;;19.10;;
71080;SDS011;58740;50.672;18.690;2022-08-18T04:49:37;25.20;;;18.70;;
71080;SDS011;58740;50.672;18.690;2022-08-18T04:52:05;24.70;;;17.90;;
71080;SDS011;58740;50.672;18.690;2022-08-18T04:55:09;29.40;;;20.00;;
71080;SDS011;58740;50.672;18.690;2022-08-18T04:57:37;27.50;;;20.30;;
71080;SDS011;58740;50.672;18.690;2022-08-18T05:00:06;27.60;;;19.20;;
71080;SDS011;58740;50.672;18.690;2022-08-18T05:02:35;26.50;;;21.00;;
71080;SDS011;58740;50.672;18.690;2022-08-18T05:05:04;27.30;;;19.90;;
71080;SDS011;58740;50.672;18.690;2022-08-18T05:07:32;27.10;;;21.00;;
71080;SDS011;58740;50.672;18.690;2022-08-18T05:10:00;23.70;;;18.70;;
71080;SDS011;58740;50.672;18.690;2022-08-18T05:12:28;23.50;;;18.40;;
71080;SDS011;58740;50.672;18.690;2022-08-18T05:14:55;24.40;;;19.10;;
71080;SDS011;58740;50.672;18.690;2022-08-18T05:17:24;26.00;;;19.40;;
71080;SDS011;58740;50.672;18.690;2022-08-18T05:20:00;26.20;;;20.10;;
71080;SDS011;58740;50.672;18.690;2022-08-18T05:22:28;26.70;;;19.60;;
71080;SDS011;58740;50.672;18.690;2022-08-18T05:24:58;24.80;;;19.40;;
71080;SDS011;58740;50.672;18.690;2022-08-18T05:27:35;25.20;;;18.20;;
71080;SDS011;58740;50.672;18.690;2022-08-18T05:30:05;28.30;;;18.60;;
71080;SDS011;58740;50.672;18.690;2022-08-18T05:32:39;26.70;;;18.40;;
71080;SDS011;58740;50.672;18.690;2022-08-18T05:35:21;26.10;;;17.80;;
71080;SDS011;58740;50.672;18.690;2022-08-18T05:41:12;23.60;;;16.90;;
71080;SDS011;58740;50.672;18.690;2022-08-18T05:43:46;25.10;;;17.70;;
71080;SDS011;58740;50.672;18.690;2022-08-18T05:46:25;24.10;;;17.90;;
71080;SDS011;58740;50.672;18.690;2022-08-18T05:49:15;25.50;;;18.00;;
71080;SDS011;58740;50.672;18.690;2022-08-18T05:51:48;22.40;;;17.90;;
71080;SDS011;58740;50.672;18.690;2022-08-18T05:54:21;23.50;;;16.70;;
71080;SDS011;58740;50.672;18.690;2022-08-18T05:57:16;21.30;;;17.90;;
71080;SDS011;58740;50.672;18.690;2022-08-18T05:59:46;23.50;;;16.90;;
71080;SDS011;58740;50.672;18.690;2022-08-18T06:02:30;25.30;;;17.40;;
71080;SDS011;58740;50.672;18.690;2022-08-18T06:05:14;27.30;;;19.10;;
71080;SDS011;58740;50.672;18.690;2022-08-18T06:08:02;22.30;;;17.00;;
71080;SDS011;58740;50.672;18.690;2022-08-18T06:10:37;21.50;;;15.90;;
71080;SDS011;58740;50.672;18.690;2022-08-18T06:13:09;24.30;;;16.60;;
71080;SDS011;58740;50.672;18.690;2022-08-18T06:16:22;20.90;;;16.90;;
71080;SDS011;58740;50.672;18.690;2022-08-18T06:18:46;24.80;;;15.80;;
71080;SDS011;58740;50.672;18.690;2022-08-18T06:30:16;22.00;;;17.00;;
71080;SDS011;58740;50.672;18.690;2022-08-18T06:44:16;24.20;;;17.00;;
71080;SDS011;58740;50.672;18.690;2022-08-18T06:50:04;25.90;;;18.00;;
71080;SDS011;58740;50.672;18.690;2022-08-18T06:52:56;22.80;;;16.80;;
71080;SDS011;58740;50.672;18.690;2022-08-18T06:55:36;26.40;;;18.20;;
71080;SDS011;58740;50.672;18.690;2022-08-18T06:58:28;29.10;;;18.40;;
71080;SDS011;58740;50.672;18.690;2022-08-18T07:01:00;24.10;;;18.30;;
71080;SDS011;58740;50.672;18.690;2022-08-18T07:06:08;30.30;;;18.50;;
71080;SDS011;58740;50.672;18.690;2022-08-18T07:08:51;23.90;;;17.60;;
71080;SDS011;58740;50.672;18.690;2022-08-18T07:11:31;23.50;;;16.70;;
71080;SDS011;58740;50.672;18.690;2022-08-18T07:14:23;24.90;;;17.00;;
71080;SDS011;58740;50.672;18.690;2022-08-18T07:17:13;21.20;;;15.80;;
71080;SDS011;58740;50.672;18.690;2022-08-18T07:20:24;20.10;;;14.40;;
71080;SDS011;58740;50.672;18.690;2022-08-18T07:22:56;21.30;;;14.20;;
71080;SDS011;58740;50.672;18.690;2022-08-18T07:25:40;18.90;;;13.70;;
71080;SDS011;58740;50.672;18.690;2022-08-18T07:28:39;16.10;;;13.70;;
71080;SDS011;58740;50.672;18.690;2022-08-18T07:31:37;17.60;;;12.90;;
71080;SDS011;58740;50.672;18.690;2022-08-18T07:34:20;16.00;;;12.80;;
71080;SDS011;58740;50.672;18.690;2022-08-18T07:37:03;17.30;;;12.80;;
71080;SDS011;58740;50.672;18.690;2022-08-18T07:39:52;15.60;;;12.20;;
71080;SDS011;58740;50.672;18.690;2022-08-18T07:42:36;15.60;;;11.90;;
71080;SDS011;58740;50.672;18.690;2022-08-18T07:45:43;15.60;;;11.60;;
71080;SDS011;58740;50.672;18.690;2022-08-18T07:48:39;14.40;;;12.60;;
71080;SDS011;58740;50.672;18.690;2022-08-18T07:51:14;14.60;;;12.60;;
71080;SDS011;58740;50.672;18.690;2022-08-18T07:53:55;15.90;;;10.80;;
71080;SDS011;58740;50.672;18.690;2022-08-18T08:02:22;16.60;;;10.00;;
71080;SDS011;58740;50.672;18.690;2022-08-18T08:07:55;14.70;;;12.00;;
71080;SDS011;58740;50.672;18.690;2022-08-18T08:14:22;16.10;;;11.00;;
71080;SDS011;58740;50.672;18.690;2022-08-18T08:17:37;15.60;;;12.10;;
71080;SDS011;58740;50.672;18.690;2022-08-18T08:20:36;14.20;;;11.40;;
71080;SDS011;58740;50.672;18.690;2022-08-18T08:29:24;12.70;;;10.80;;
71080;SDS011;58740;50.672;18.690;2022-08-18T08:32:33;16.40;;;11.10;;
71080;SDS011;58740;50.672;18.690;2022-08-18T08:35:07;17.70;;;11.70;;
71080;SDS011;58740;50.672;18.690;2022-08-18T08:38:05;14.90;;;10.70;;
71080;SDS011;58740;50.672;18.690;2022-08-18T08:41:02;17.40;;;11.90;;
71080;SDS011;58740;50.672;18.690;2022-08-18T08:43:39;13.60;;;10.50;;
71080;SDS011;58740;50.672;18.690;2022-08-18T08:46:26;18.30;;;13.40;;
71080;SDS011;58740;50.672;18.690;2022-08-18T08:49:08;13.10;;;9.10;;
71080;SDS011;58740;50.672;18.690;2022-08-18T08:51:45;16.90;;;10.80;;
71080;SDS011;58740;50.672;18.690;2022-08-18T08:54:39;13.90;;;10.20;;
71080;SDS011;58740;50.672;18.690;2022-08-18T08:57:13;14.70;;;10.80;;
71080;SDS011;58740;50.672;18.690;2022-08-18T08:59:44;13.70;;;10.40;;
71080;SDS011;58740;50.672;18.690;2022-08-18T09:02:46;12.80;;;10.20;;
71080;SDS011;58740;50.672;18.690;2022-08-18T09:08:56;16.60;;;11.30;;
71080;SDS011;58740;50.672;18.690;2022-08-18T09:14:21;14.90;;;11.00;;
71080;SDS011;58740;50.672;18.690;2022-08-18T09:23:29;12.10;;;9.50;;
71080;SDS011;58740;50.672;18.690;2022-08-18T09:26:21;13.00;;;9.10;;
71080;SDS011;58740;50.672;18.690;2022-08-18T09:28:58;12.30;;;9.60;;
71080;SDS011;58740;50.672;18.690;2022-08-18T09:31:37;12.70;;;9.70;;
71080;SDS011;58740;50.672;18.690;2022-08-18T09:34:15;12.10;;;9.20;;
71080;SDS011;58740;50.672;18.690;2022-08-18T09:36:59;13.20;;;9.30;;
71080;SDS011;58740;50.672;18.690;2022-08-18T09:40:02;12.80;;;9.20;;
71080;SDS011;58740;50.672;18.690;2022-08-18T09:43:35;13.60;;;9.60;;
71080;SDS011;58740;50.672;18.690;2022-08-18T09:46:51;12.80;;;9.40;;
71080;SDS011;58740;50.672;18.690;2022-08-18T09:52:00;13.60;;;10.20;;
71080;SDS011;58740;50.672;18.690;2022-08-18T09:55:04;12.90;;;9.80;;
71080;SDS011;58740;50.672;18.690;2022-08-18T09:57:37;13.40;;;10.20;;
71080;SDS011;58740;50.672;18.690;2022-08-18T10:05:31;16.60;;;10.50;;
71080;SDS011;58740;50.672;18.690;2022-08-18T10:10:40;13.20;;;9.70;;
71080;SDS011;58740;50.672;18.690;2022-08-18T10:17:09;13.70;;;10.60;;
71080;SDS011;58740;50.672;18.690;2022-08-18T10:19:59;12.30;;;9.80;;
71080;SDS011;58740;50.672;18.690;2022-08-18T10:22:54;14.20;;;10.70;;
71080;SDS011;58740;50.672;18.690;2022-08-18T10:25:43;12.30;;;8.80;;
71080;SDS011;58740;50.672;18.690;2022-08-18T10:31:18;12.50;;;9.50;;
71080;SDS011;58740;50.672;18.690;2022-08-18T10:34:09;13.40;;;9.40;;
71080;SDS011;58740;50.672;18.690;2022-08-18T10:36:50;12.00;;;9.30;;
71080;SDS011;58740;50.672;18.690;2022-08-18T10:42:23;11.80;;;9.50;;
71080;SDS011;58740;50.672;18.690;2022-08-18T10:45:12;13.80;;;9.50;;
71080;SDS011;58740;50.672;18.690;2022-08-18T10:51:23;11.90;;;8.30;;
71080;SDS011;58740;50.672;18.690;2022-08-18T11:07:24;12.40;;;8.20;;
71080;SDS011;58740;50.672;18.690;2022-08-18T11:10:18;9.80;;;7.30;;
71080;SDS011;58740;50.672;18.690;2022-08-18T11:19:03;11.60;;;8.50;;
71080;SDS011;58740;50.672;18.690;2022-08-18T11:24:29;17.30;;;8.40;;
71080;SDS011;58740;50.672;18.690;2022-08-18T11:27:04;12.40;;;8.40;;
71080;SDS011;58740;50.672;18.690;2022-08-18T11:29:43;15.10;;;9.90;;
71080;SDS011;58740;50.672;18.690;2022-08-18T11:32:30;13.80;;;9.50;;
71080;SDS011;58740;50.672;18.690;2022-08-18T11:37:55;12.20;;;8.70;;
71080;SDS011;58740;50.672;18.690;2022-08-18T11:43:29;9.10;;;7.30;;
71080;SDS011;58740;50.672;18.690;2022-08-18T11:46:21;14.90;;;9.00;;
71080;SDS011;58740;50.672;18.690;2022-08-18T11:51:57;13.00;;;9.00;;
71080;SDS011;58740;50.672;18.690;2022-08-18T11:54:38;11.30;;;8.00;;
71080;SDS011;58740;50.672;18.690;2022-08-18T12:00:35;12.10;;;8.70;;
71080;SDS011;58740;50.672;18.690;2022-08-18T12:05:58;14.20;;;9.10;;
71080;SDS011;58740;50.672;18.690;2022-08-18T12:08:58;12.30;;;8.80;;
71080;SDS011;58740;50.672;18.690;2022-08-18T12:11:36;13.90;;;8.90;;
71080;SDS011;58740;50.672;18.690;2022-08-18T12:14:23;13.80;;;8.80;;
71080;SDS011;58740;50.672;18.690;2022-08-18T12:17:06;12.10;;;7.80;;
71080;SDS011;58740;50.672;18.690;2022-08-18T12:19:34;12.00;;;8.40;;
71080;SDS011;58740;50.672;18.690;2022-08-18T12:22:14;11.60;;;9.20;;
71080;SDS011;58740;50.672;18.690;2022-08-18T12:24:53;12.50;;;9.40;;
71080;SDS011;58740;50.672;18.690;2022-08-18T12:27:24;10.80;;;8.80;;
71080;SDS011;58740;50.672;18.690;2022-08-18T12:29:59;10.20;;;8.10;;
71080;SDS011;58740;50.672;18.690;2022-08-18T12:32:31;11.60;;;8.60;;
71080;SDS011;58740;50.672;18.690;2022-08-18T12:35:20;11.70;;;8.50;;
71080;SDS011;58740;50.672;18.690;2022-08-18T12:37:48;11.30;;;8.70;;
71080;SDS011;58740;50.672;18.690;2022-08-18T12:40:30;9.20;;;7.80;;
71080;SDS011;58740;50.672;18.690;2022-08-18T12:42:59;10.10;;;8.20;;
71080;SDS011;58740;50.672;18.690;2022-08-18T12:45:28;12.50;;;8.80;;
71080;SDS011;58740;50.672;18.690;2022-08-18T12:47:57;10.90;;;9.20;;
71080;SDS011;58740;50.672;18.690;2022-08-18T12:50:31;11.30;;;9.00;;
71080;SDS011;58740;50.672;18.690;2022-08-18T12:53:15;13.80;;;9.30;;
71080;SDS011;58740;50.672;18.690;2022-08-18T12:55:43;11.10;;;8.30;;
71080;SDS011;58740;50.672;18.690;2022-08-18T12:58:12;10.40;;;8.40;;
71080;SDS011;58740;50.672;18.690;2022-08-18T13:00:41;11.60;;;8.70;;
71080;SDS011;58740;50.672;18.690;2022-08-18T13:03:09;12.50;;;9.00;;
71080;SDS011;58740;50.672;18.690;2022-08-18T13:05:37;10.10;;;8.30;;
71080;SDS011;58740;50.672;18.690;2022-08-18T13:08:10;11.40;;;8.40;;
71080;SDS011;58740;50.672;18.690;2022-08-18T13:10:59;13.90;;;8.80;;
71080;SDS011;58740;50.672;18.690;2022-08-18T13:13:48;10.70;;;7.60;;
71080;SDS011;58740;50.672;18.690;2022-08-18T13:16:22;10.10;;;8.00;;
71080;SDS011;58740;50.672;18.690;2022-08-18T13:19:13;12.80;;;9.30;;
71080;SDS011;58740;50.672;18.690;2022-08-18T13:21:41;11.40;;;8.20;;
71080;SDS011;58740;50.672;18.690;2022-08-18T13:24:09;12.00;;;8.50;;
71080;SDS011;58740;50.672;18.690;2022-08-18T13:26:44;19.50;;;8.10;;
71080;SDS011;58740;50.672;18.690;2022-08-18T13:29:15;11.20;;;8.50;;
71080;SDS011;58740;50.672;18.690;2022-08-18T13:31:45;11.50;;;8.60;;
71080;SDS011;58740;50.672;18.690;2022-08-18T13:34:23;11.90;;;8.60;;
71080;SDS011;58740;50.672;18.690;2022-08-18T13:36:56;12.10;;;8.80;;
71080;SDS011;58740;50.672;18.690;2022-08-18T13:39:25;12.20;;;8.60;;
71080;SDS011;58740;50.672;18.690;2022-08-18T13:42:01;12.40;;;8.70;;
71080;SDS011;58740;50.672;18.690;2022-08-18T13:44:49;9.90;;;8.80;;
71080;SDS011;58740;50.672;18.690;2022-08-18T13:47:20;12.40;;;8.90;;
71080;SDS011;58740;50.672;18.690;2022-08-18T13:49:49;11.30;;;8.50;;
71080;SDS011;58740;50.672;18.690;2022-08-18T13:52:28;11.80;;;8.20;;
71080;SDS011;58740;50.672;18.690;2022-08-18T13:55:14;11.80;;;8.80;;
71080;SDS011;58740;50.672;18.690;2022-08-18T13:57:44;12.40;;;8.20;;
71080;SDS011;58740;50.672;18.690;2022-08-18T14:00:18;11.50;;;9.00;;
71080;SDS011;58740;50.672;18.690;2022-08-18T14:02:57;13.00;;;8.60;;
71080;SDS011;58740;50.672;18.690;2022-08-18T14:05:30;11.50;;;9.30;;
71080;SDS011;58740;50.672;18.690;2022-08-18T14:08:18;13.60;;;8.70;;
71080;SDS011;58740;50.672;18.690;2022-08-18T14:10:52;12.80;;;8.90;;
71080;SDS011;58740;50.672;18.690;2022-08-18T14:13:23;11.30;;;8.50;;
71080;SDS011;58740;50.672;18.690;2022-08-18T14:15:53;12.00;;;8.70;;
71080;SDS011;58740;50.672;18.690;2022-08-18T14:18:24;13.80;;;9.20;;
71080;SDS011;58740;50.672;18.690;2022-08-18T14:20:57;11.90;;;8.70;;
71080;SDS011;58740;50.672;18.690;2022-08-18T14:23:50;11.10;;;9.40;;
71080;SDS011;58740;50.672;18.690;2022-08-18T14:26:37;12.60;;;9.00;;
71080;SDS011;58740;50.672;18.690;2022-08-18T14:29:17;14.30;;;9.30;;
71080;SDS011;58740;50.672;18.690;2022-08-18T14:32:06;11.60;;;7.80;;
71080;SDS011;58740;50.672;18.690;2022-08-18T14:34:35;12.30;;;8.60;;
71080;SDS011;58740;50.672;18.690;2022-08-18T14:37:03;11.50;;;9.40;;
71080;SDS011;58740;50.672;18.690;2022-08-18T14:39:36;11.30;;;9.10;;
71080;SDS011;58740;50.672;18.690;2022-08-18T14:42:04;11.50;;;9.30;;
71080;SDS011;58740;50.672;18.690;2022-08-18T14:44:34;12.50;;;8.50;;
71080;SDS011;58740;50.672;18.690;2022-08-18T14:47:02;11.20;;;7.80;;
71080;SDS011;58740;50.672;18.690;2022-08-18T14:49:30;13.50;;;10.20;;
71080;SDS011;58740;50.672;18.690;2022-08-18T14:52:00;12.00;;;8.90;;
71080;SDS011;58740;50.672;18.690;2022-08-18T14:54:29;13.00;;;8.40;;
71080;SDS011;58740;50.672;18.690;2022-08-18T14:56:59;13.10;;;9.00;;
71080;SDS011;58740;50.672;18.690;2022-08-18T14:59:29;12.00;;;8.70;;
71080;SDS011;58740;50.672;18.690;2022-08-18T15:02:06;12.20;;;8.60;;
71080;SDS011;58740;50.672;18.690;2022-08-18T15:04:41;9.80;;;7.90;;
71080;SDS011;58740;50.672;18.690;2022-08-18T15:07:23;13.20;;;8.90;;
71080;SDS011;58740;50.672;18.690;2022-08-18T15:09:52;11.10;;;8.20;;
71080;SDS011;58740;50.672;18.690;2022-08-18T15:12:40;13.50;;;9.10;;
71080;SDS011;58740;50.672;18.690;2022-08-18T15:15:11;14.10;;;8.80;;
71080;SDS011;58740;50.672;18.690;2022-08-18T15:17:45;11.10;;;9.10;;
71080;SDS011;58740;50.672;18.690;2022-08-18T15:20:22;12.50;;;7.70;;
71080;SDS011;58740;50.672;18.690;2022-08-18T15:23:00;12.40;;;8.30;;
71080;SDS011;58740;50.672;18.690;2022-08-18T15:26:10;11.40;;;8.70;;
71080;SDS011;58740;50.672;18.690;2022-08-18T15:28:40;11.90;;;8.70;;
71080;SDS011;58740;50.672;18.690;2022-08-18T15:31:11;11.60;;;8.60;;
71080;SDS011;58740;50.672;18.690;2022-08-18T15:33:59;13.00;;;8.30;;
71080;SDS011;58740;50.672;18.690;2022-08-18T15:36:29;10.80;;;7.80;;
71080;SDS011;58740;50.672;18.690;2022-08-18T15:38:59;12.00;;;7.60;;
71080;SDS011;58740;50.672;18.690;2022-08-18T15:41:35;13.50;;;8.20;;
71080;SDS011;58740;50.672;18.690;2022-08-18T15:44:12;15.00;;;9.00;;
71080;SDS011;58740;50.672;18.690;2022-08-18T15:46:40;11.50;;;8.10;;
71080;SDS011;58740;50.672;18.690;2022-08-18T15:49:17;13.10;;;8.00;;
71080;SDS011;58740;50.672;18.690;2022-08-18T15:51:48;11.20;;;7.50;;
71080;SDS011;58740;50.672;18.690;2022-08-18T15:54:19;11.70;;;9.00;;
71080;SDS011;58740;50.672;18.690;2022-08-18T15:56:47;11.60;;;7.90;;
71080;SDS011;58740;50.672;18.690;2022-08-18T15:59:27;12.80;;;7.00;;
71080;SDS011;58740;50.672;18.690;2022-08-18T16:02:08;11.10;;;7.70;;
71080;SDS011;58740;50.672;18.690;2022-08-18T16:04:38;12.10;;;8.30;;
71080;SDS011;58740;50.672;18.690;2022-08-18T16:07:12;9.70;;;7.80;;
71080;SDS011;58740;50.672;18.690;2022-08-18T16:09:44;10.30;;;7.70;;
71080;SDS011;58740;50.672;18.690;2022-08-18T16:12:12;10.00;;;7.40;;
71080;SDS011;58740;50.672;18.690;2022-08-18T16:14:40;11.70;;;8.20;;
71080;SDS011;58740;50.672;18.690;2022-08-18T16:17:08;12.80;;;8.30;;
71080;SDS011;58740;50.672;18.690;2022-08-18T16:19:50;13.00;;;7.80;;
71080;SDS011;58740;50.672;18.690;2022-08-18T16:22:17;13.20;;;8.00;;
71080;SDS011;58740;50.672;18.690;2022-08-18T16:24:48;14.70;;;8.20;;
71080;SDS011;58740;50.672;18.690;2022-08-18T16:27:21;13.30;;;8.30;;
71080;SDS011;58740;50.672;18.690;2022-08-18T16:29:49;11.40;;;8.10;;
71080;SDS011;58740;50.672;18.690;2022-08-18T16:32:17;11.20;;;7.30;;
71080;SDS011;58740;50.672;18.690;2022-08-18T16:34:44;11.20;;;8.00;;
71080;SDS011;58740;50.672;18.690;2022-08-18T16:37:12;11.60;;;8.50;;
71080;SDS011;58740;50.672;18.690;2022-08-18T16:39:39;12.80;;;9.00;;
71080;SDS011;58740;50.672;18.690;2022-08-18T16:42:07;11.70;;;8.80;;
71080;SDS011;58740;50.672;18.690;2022-08-18T16:44:35;12.60;;;8.40;;
71080;SDS011;58740;50.672;18.690;2022-08-18T16:47:04;13.30;;;8.20;;
71080;SDS011;58740;50.672;18.690;2022-08-18T16:49:33;14.90;;;8.50;;
71080;SDS011;58740;50.672;18.690;2022-08-18T16:52:01;12.00;;;8.60;;
71080;SDS011;58740;50.672;18.690;2022-08-18T16:54:30;12.50;;;7.90;;
71080;SDS011;58740;50.672;18.690;2022-08-18T16:56:58;12.00;;;8.20;;
71080;SDS011;58740;50.672;18.690;2022-08-18T16:59:26;11.40;;;8.50;;
71080;SDS011;58740;50.672;18.690;2022-08-18T17:02:12;14.40;;;8.30;;
71080;SDS011;58740;50.672;18.690;2022-08-18T17:04:59;13.00;;;8.30;;
71080;SDS011;58740;50.672;18.690;2022-08-18T17:07:30;12.00;;;8.10;;
71080;SDS011;58740;50.672;18.690;2022-08-18T17:10:02;10.40;;;8.00;;
71080;SDS011;58740;50.672;18.690;2022-08-18T17:12:31;12.40;;;7.50;;